Time;durP1;ratioP1;P1;durP2;ratioP2;P2;SDS_P1;SDS_P2;PMS_P1;PMS_P2;Temp;Humidity;BMP_temperature;BMP_pressure;BME280_temperature;BME280_humidity;BME280_pressure;Samples;Min_cycle;Max_cycle;Signal;HPM_P1;HPM_P2
2022/07/08 00:00:46;;;;;;;8.20;2.00;;;16.80;99.90;;;;;;5006058;28;20528;-84
2022/07/08 00:03:11;;;;;;;16.73;2.80;;;16.80;99.90;;;;;;5000254;28;20186;-86
2022/07/08 00:05:38;;;;;;;6.27;2.40;;;16.80;99.90;;;;;;5006310;28;20434;-85
2022/07/08 00:08:04;;;;;;;5.77;2.20;;;16.80;99.90;;;;;;5001505;28;20198;-85
2022/07/08 00:10:29;;;;;;;7.73;2.10;;;16.80;99.90;;;;;;5003295;28;20439;-85
2022/07/08 00:12:55;;;;;;;6.03;2.30;;;16.80;99.90;;;;;;5007415;28;20445;-86
2022/07/08 00:15:21;;;;;;;5.87;2.27;;;16.80;99.90;;;;;;5003909;28;20647;-86
2022/07/08 00:17:47;;;;;;;12.83;2.90;;;16.80;99.90;;;;;;5003733;28;20842;-85
2022/07/08 00:20:12;;;;;;;6.37;2.23;;;16.80;99.90;;;;;;5003527;28;20477;-86
2022/07/08 00:22:38;;;;;;;4.47;2.53;;;16.80;99.90;;;;;;5000838;28;20450;-85
2022/07/08 00:25:04;;;;;;;4.37;2.20;;;16.80;99.90;;;;;;5003880;28;20665;-86
2022/07/08 00:27:30;;;;;;;8.87;2.90;;;16.80;99.90;;;;;;5005604;28;20588;-85
2022/07/08 00:29:55;;;;;;;7.70;3.30;;;16.80;99.90;;;;;;5005605;28;20450;-87
2022/07/08 00:32:21;;;;;;;7.63;2.07;;;16.80;99.90;;;;;;5007065;28;20193;-85
2022/07/08 00:34:47;;;;;;;3.87;1.93;;;16.70;99.90;;;;;;5001552;28;20563;-85
2022/07/08 00:37:12;;;;;;;7.67;3.73;;;16.70;99.90;;;;;;4999959;28;20213;-86
2022/07/08 00:39:38;;;;;;;6.83;2.00;;;16.60;99.90;;;;;;5000853;28;20194;-85
2022/07/08 00:42:05;;;;;;;8.47;3.33;;;16.60;99.90;;;;;;5028171;28;20175;-87
2022/07/08 00:44:31;;;;;;;4.80;2.10;;;16.60;99.90;;;;;;5002579;28;20273;-88
2022/07/08 00:46:56;;;;;;;8.40;2.87;;;16.60;99.90;;;;;;5009145;28;20480;-86
2022/07/08 00:49:22;;;;;;;6.77;2.43;;;16.60;99.90;;;;;;5004779;28;20651;-85
2022/07/08 00:51:49;;;;;;;7.50;2.13;;;16.60;99.90;;;;;;4998382;28;20197;-85
2022/07/08 00:54:18;;;;;;;8.03;3.00;;;16.60;99.90;;;;;;4997820;28;20433;-86
2022/07/08 00:56:44;;;;;;;7.63;2.50;;;16.60;99.90;;;;;;5005320;28;20445;-86
2022/07/08 00:59:10;;;;;;;7.90;2.20;;;16.60;99.90;;;;;;5019427;28;20472;-86
2022/07/08 01:01:36;;;;;;;7.00;2.10;;;16.60;99.90;;;;;;5003869;28;20238;-87
2022/07/08 01:04:03;;;;;;;6.70;2.00;;;16.50;99.90;;;;;;5007724;28;20492;-86
2022/07/08 01:06:28;;;;;;;8.53;2.37;;;16.50;99.90;;;;;;5004264;28;20798;-87
2022/07/08 01:08:54;;;;;;;5.70;2.40;;;16.50;99.90;;;;;;5002025;28;20505;-87
2022/07/08 01:11:20;;;;;;;7.30;2.20;;;16.50;99.90;;;;;;5019611;28;20326;-84
2022/07/08 01:13:47;;;;;;;5.60;2.20;;;16.50;99.90;;;;;;5006488;28;20460;-85
2022/07/08 01:16:13;;;;;;;6.03;1.93;;;16.50;99.90;;;;;;5003652;28;20229;-86
2022/07/08 01:18:40;;;;;;;9.70;1.90;;;16.40;99.90;;;;;;5001691;28;20457;-85
2022/07/08 01:21:05;;;;;;;7.73;3.13;;;16.50;99.90;;;;;;5006052;28;20469;-87
2022/07/08 01:23:31;;;;;;;8.43;2.13;;;16.50;99.90;;;;;;5002236;28;20440;-86
2022/07/08 01:25:57;;;;;;;7.33;2.80;;;16.40;99.90;;;;;;5003283;28;20257;-86
2022/07/08 01:28:23;;;;;;;9.30;2.57;;;16.40;99.90;;;;;;5001611;28;20222;-86
2022/07/08 01:30:49;;;;;;;7.30;2.20;;;16.40;99.90;;;;;;5001476;28;20442;-85
2022/07/08 01:33:15;;;;;;;5.83;2.47;;;16.40;99.90;;;;;;5018105;28;20197;-85
2022/07/08 01:35:40;;;;;;;5.03;2.03;;;16.50;99.90;;;;;;5002969;28;20456;-86
2022/07/08 01:38:06;;;;;;;5.37;1.83;;;16.50;99.90;;;;;;5004114;28;20217;-86
2022/07/08 01:40:31;;;;;;;10.93;2.57;;;16.40;99.90;;;;;;5020279;28;20741;-85
2022/07/08 01:42:57;;;;;;;7.40;2.77;;;16.40;99.90;;;;;;5002102;28;20194;-86
2022/07/08 01:45:22;;;;;;;8.53;2.40;;;16.40;99.90;;;;;;5004187;28;20195;-87
2022/07/08 01:47:48;;;;;;;11.97;2.33;;;16.40;99.90;;;;;;5002006;28;20214;-85
2022/07/08 01:50:13;;;;;;;6.00;1.97;;;16.40;1.00;;;;;;5004420;28;20273;-85
2022/07/08 01:52:39;;;;;;;5.23;2.10;;;16.40;1.00;;;;;;5000912;28;20194;-87
2022/07/08 01:55:06;;;;;;;4.40;2.10;;;16.40;1.00;;;;;;5006340;28;20190;-86
2022/07/08 01:57:31;;;;;;;6.23;2.10;;;16.30;1.00;;;;;;5001660;28;20623;-86
2022/07/08 01:59:57;;;;;;;5.40;1.87;;;16.30;1.00;;;;;;5003507;28;20556;-86
2022/07/08 02:02:23;;;;;;;6.73;2.03;;;16.30;1.00;;;;;;5003141;28;20304;-86
2022/07/08 02:04:48;;;;;;;6.33;2.43;;;16.30;1.00;;;;;;5004383;28;20941;-85
2022/07/08 02:07:15;;;;;;;10.30;2.80;;;16.20;1.00;;;;;;5001585;28;20198;-88
2022/07/08 02:09:41;;;;;;;17.27;2.33;;;16.20;1.00;;;;;;5001490;28;20248;-88
2022/07/08 02:12:20;;;;;;;8.40;2.23;;;16.20;1.00;;;;;;5005943;28;20469;-85
2022/07/08 02:14:51;;;;;;;5.27;1.83;;;16.20;1.00;;;;;;5005450;28;20446;-86
2022/07/08 02:17:20;;;;;;;6.97;2.63;;;16.20;1.00;;;;;;5008288;28;20540;-87
2022/07/08 02:19:46;;;;;;;4.90;2.47;;;16.10;1.00;;;;;;5003884;28;20532;-86
2022/07/08 02:22:12;;;;;;;11.90;2.67;;;16.10;1.00;;;;;;5004579;28;20881;-88
2022/07/08 02:24:38;;;;;;;5.80;2.27;;;16.20;1.00;;;;;;5002853;28;20432;-85
2022/07/08 02:27:05;;;;;;;7.20;2.60;;;16.20;1.00;;;;;;5006552;28;20441;-85
2022/07/08 02:29:30;;;;;;;13.00;3.00;;;16.10;1.00;;;;;;5004091;28;20452;-85
2022/07/08 02:31:56;;;;;;;4.67;2.30;;;16.10;1.00;;;;;;5006468;28;20444;-86
2022/07/08 02:34:22;;;;;;;5.73;2.40;;;16.10;1.00;;;;;;5017841;28;20189;-87
2022/07/08 02:36:47;;;;;;;4.87;2.40;;;16.10;1.00;;;;;;5002852;28;20201;-86
2022/07/08 02:39:13;;;;;;;9.70;3.07;;;16.10;1.00;;;;;;4999224;28;20289;-87
2022/07/08 02:41:39;;;;;;;13.00;4.67;;;16.10;1.00;;;;;;5004312;28;20289;-86
2022/07/08 02:44:06;;;;;;;6.37;2.50;;;16.10;1.00;;;;;;5007537;28;20182;-85
2022/07/08 02:46:32;;;;;;;9.57;2.27;;;16.10;1.00;;;;;;5006564;28;20448;-85
2022/07/08 02:48:58;;;;;;;7.87;2.20;;;16.10;1.00;;;;;;5008734;28;20467;-85
2022/07/08 02:51:23;;;;;;;7.00;2.27;;;16.00;1.00;;;;;;5008456;28;20452;-86
2022/07/08 02:53:49;;;;;;;10.07;3.23;;;16.00;1.00;;;;;;5002173;28;20194;-85
2022/07/08 02:56:14;;;;;;;12.23;2.70;;;16.00;1.00;;;;;;5022440;28;20189;-86
2022/07/08 02:58:40;;;;;;;4.83;2.30;;;16.00;1.00;;;;;;5002591;28;20261;-85
2022/07/08 03:01:05;;;;;;;8.03;2.40;;;16.00;1.00;;;;;;5009024;28;20208;-86
2022/07/08 03:03:31;;;;;;;8.43;2.87;;;16.00;1.00;;;;;;5003223;28;20700;-86
2022/07/08 03:05:56;;;;;;;4.97;2.20;;;16.00;1.00;;;;;;5010829;28;20724;-85
2022/07/08 03:08:22;;;;;;;7.00;2.57;;;16.00;1.00;;;;;;5009643;28;20213;-85
2022/07/08 03:10:49;;;;;;;9.07;2.60;;;15.90;1.00;;;;;;5007162;28;20208;-85
2022/07/08 03:13:14;;;;;;;9.60;2.53;;;15.90;1.00;;;;;;5007734;28;20185;-86
2022/07/08 03:15:40;;;;;;;3.93;2.50;;;15.90;1.00;;;;;;5006501;28;20454;-85
2022/07/08 03:18:06;;;;;;;7.93;2.67;;;15.80;1.00;;;;;;5003661;28;20219;-85
2022/07/08 03:20:31;;;;;;;8.87;3.63;;;15.80;1.00;;;;;;5003966;28;20244;-86
2022/07/08 03:22:57;;;;;;;12.70;2.90;;;15.80;1.00;;;;;;5007163;28;20387;-85
2022/07/08 03:25:22;;;;;;;5.00;2.50;;;15.70;1.00;;;;;;5014977;28;20599;-85
2022/07/08 03:27:48;;;;;;;8.03;2.60;;;15.70;1.00;;;;;;5007719;28;20305;-86
2022/07/08 03:30:14;;;;;;;8.60;2.70;;;15.70;1.00;;;;;;5008010;28;20182;-87
2022/07/08 03:32:40;;;;;;;6.20;2.73;;;15.60;1.00;;;;;;5008409;28;20439;-85
2022/07/08 03:35:05;;;;;;;9.43;2.97;;;15.60;9.50;;;;;;5008170;28;20236;-86
2022/07/08 03:37:31;;;;;;;5.30;2.50;;;15.50;56.20;;;;;;5005716;28;20205;-85
2022/07/08 03:41:19;;;;;;;4.43;2.60;;;15.50;99.90;;;;;;5003047;28;20460;-85
2022/07/08 03:42:42;;;;;;;5.13;2.97;;;15.50;99.90;;;;;;5006835;28;20185;-87
2022/07/08 03:45:08;;;;;;;8.17;2.87;;;15.50;99.90;;;;;;5005946;28;20486;-86
2022/07/08 03:47:34;;;;;;;7.90;2.50;;;15.50;99.90;;;;;;5008183;28;20220;-85
2022/07/08 03:50:00;;;;;;;6.73;2.60;;;15.50;99.90;;;;;;5007652;28;20438;-85
2022/07/08 03:52:25;;;;;;;6.27;3.17;;;15.50;99.90;;;;;;5006852;28;20510;-86
2022/07/08 03:54:52;;;;;;;4.50;2.27;;;15.50;99.90;;;;;;5005145;28;20712;-85
2022/07/08 03:57:18;;;;;;;4.80;2.60;;;15.50;99.90;;;;;;5006342;28;20487;-85
2022/07/08 03:59:43;;;;;;;7.97;3.10;;;15.50;99.90;;;;;;5007328;28;20177;-85
2022/07/08 04:02:09;;;;;;;6.10;3.20;;;15.50;99.90;;;;;;5007530;28;20188;-85
2022/07/08 04:04:34;;;;;;;11.47;3.73;;;15.50;99.90;;;;;;5003361;28;20693;-86
2022/07/08 04:07:00;;;;;;;6.60;2.40;;;15.40;99.90;;;;;;5006904;28;20718;-87
2022/07/08 04:09:25;;;;;;;9.23;3.07;;;15.40;99.90;;;;;;5005466;28;20182;-85
2022/07/08 04:11:52;;;;;;;8.17;2.40;;;15.40;99.90;;;;;;5008124;28;20186;-85
2022/07/08 04:14:17;;;;;;;5.17;2.30;;;15.40;99.90;;;;;;5008025;28;20188;-85
2022/07/08 04:16:43;;;;;;;6.80;3.00;;;15.50;99.90;;;;;;5022119;28;20944;-86
2022/07/08 04:19:08;;;;;;;11.30;2.80;;;15.50;99.90;;;;;;5004819;28;20685;-85
2022/07/08 04:21:34;;;;;;;4.10;2.50;;;15.50;99.90;;;;;;5008009;28;20205;-85
2022/07/08 04:24:00;;;;;;;6.43;2.70;;;15.50;99.90;;;;;;5009053;28;20190;-86
2022/07/08 04:26:31;;;;;;;16.83;4.33;;;15.60;95.80;;;;;;5007834;28;20182;-85
2022/07/08 04:28:57;;;;;;;8.27;3.03;;;15.60;51.10;;;;;;5004464;28;20855;-85
2022/07/08 04:31:23;;;;;;;4.40;2.53;;;15.70;28.50;;;;;;5021681;28;20810;-85
2022/07/08 04:33:48;;;;;;;10.33;3.30;;;15.80;1.00;;;;;;5003707;28;20429;-85
2022/07/08 04:36:14;;;;;;;5.03;2.47;;;15.80;1.00;;;;;;5020941;28;20186;-86
2022/07/08 04:38:40;;;;;;;8.53;2.63;;;15.90;1.00;;;;;;5006519;28;20221;-85
2022/07/08 04:41:05;;;;;;;4.60;2.07;;;16.00;1.00;;;;;;5008726;28;20560;-85
2022/07/08 04:43:31;;;;;;;5.03;2.83;;;16.10;1.00;;;;;;5002967;28;20265;-84
2022/07/08 04:45:56;;;;;;;7.63;2.97;;;16.20;1.00;;;;;;5007268;28;20180;-84
2022/07/08 04:48:22;;;;;;;4.97;2.30;;;16.30;1.00;;;;;;5005067;28;20206;-84
2022/07/08 04:50:47;;;;;;;6.37;2.80;;;16.30;1.00;;;;;;5005622;28;20186;-85
2022/07/08 04:53:13;;;;;;;10.50;3.20;;;16.40;1.00;;;;;;5003181;28;20196;-88
2022/07/08 04:55:39;;;;;;;7.50;3.03;;;16.40;1.00;;;;;;5000464;28;20581;-85
2022/07/08 04:58:04;;;;;;;5.90;2.50;;;16.40;1.00;;;;;;5002809;28;20363;-86
2022/07/08 05:00:32;;;;;;;8.27;2.40;;;16.40;1.00;;;;;;5004559;28;20610;-85
2022/07/08 05:02:59;;;;;;;5.93;2.87;;;16.40;1.00;;;;;;5006813;28;20193;-87
2022/07/08 05:05:26;;;;;;;9.60;3.40;;;16.40;1.00;;;;;;5004411;28;20845;-85
2022/07/08 05:07:51;;;;;;;9.53;2.90;;;16.50;1.00;;;;;;5007551;28;20457;-85
2022/07/08 05:10:20;;;;;;;13.00;2.90;;;16.50;1.00;;;;;;5003501;28;20665;-90
2022/07/08 05:12:46;;;;;;;4.43;2.47;;;16.50;1.00;;;;;;5007839;28;20187;-85
2022/07/08 05:15:12;;;;;;;5.63;3.10;;;16.60;1.00;;;;;;5008213;28;20439;-86
2022/07/08 05:17:41;;;;;;;5.47;2.50;;;16.60;1.00;;;;;;5007792;28;20218;-85
2022/07/08 05:20:07;;;;;;;8.10;3.10;;;16.60;1.00;;;;;;5006528;28;20839;-86
2022/07/08 05:22:33;;;;;;;6.97;2.80;;;16.70;1.00;;;;;;5031283;28;20531;-88
2022/07/08 05:24:59;;;;;;;5.43;2.80;;;16.70;1.00;;;;;;5003515;28;20458;-86
2022/07/08 05:27:25;;;;;;;6.50;2.87;;;16.80;1.00;;;;;;5007515;28;21081;-86
2022/07/08 05:29:50;;;;;;;4.97;2.77;;;16.80;1.00;;;;;;5007294;28;20189;-85
2022/07/08 05:32:16;;;;;;;11.40;5.87;;;16.90;1.00;;;;;;5012479;28;20180;-85
2022/07/08 05:34:44;;;;;;;15.13;3.07;;;17.00;1.00;;;;;;5001962;28;20199;-85
2022/07/08 05:37:10;;;;;;;4.50;2.80;;;17.10;99.90;;;;;;5007830;28;20180;-85
2022/07/08 05:39:35;;;;;;;5.67;2.63;;;17.20;99.90;;;;;;5005814;28;20663;-85
2022/07/08 05:42:01;;;;;;;8.50;3.33;;;17.30;99.90;;;;;;5011110;28;20577;-85
2022/07/08 05:44:27;;;;;;;12.00;3.63;;;17.40;99.90;;;;;;5008998;28;20188;-86
2022/07/08 05:46:52;;;;;;;7.30;3.57;;;17.50;99.90;;;;;;5014420;28;20647;-83
2022/07/08 05:49:18;;;;;;;5.03;2.60;;;17.60;99.90;;;;;;5011859;28;20709;-85
2022/07/08 05:51:43;;;;;;;6.80;2.13;;;17.80;99.90;;;;;;5001393;28;20207;-85
2022/07/08 05:54:09;;;;;;;6.73;2.50;;;18.00;99.90;;;;;;5008857;28;20252;-83
2022/07/08 05:56:35;;;;;;;2.70;2.03;;;18.10;99.90;;;;;;5009089;28;20272;-85
2022/07/08 05:59:00;;;;;;;10.80;3.63;;;18.20;99.90;;;;;;5008079;28;20284;-87
2022/07/08 06:01:26;;;;;;;7.83;2.70;;;18.30;99.90;;;;;;4997350;28;20464;-86
2022/07/08 06:03:52;;;;;;;7.30;2.30;;;18.50;99.90;;;;;;5008960;28;20224;-83
2022/07/08 06:06:17;;;;;;;10.43;1.93;;;18.70;99.90;;;;;;5004708;28;20837;-85
2022/07/08 06:08:43;;;;;;;6.70;1.90;;;19.00;99.90;;;;;;5011353;28;20201;-85
2022/07/08 06:11:08;;;;;;;6.37;2.37;;;19.40;99.90;;;;;;5005554;28;20193;-87
2022/07/08 06:13:34;;;;;;;3.97;1.80;;;20.20;99.90;;;;;;5010264;28;20187;-85
2022/07/08 06:15:59;;;;;;;3.50;1.30;;;22.10;99.90;;;;;;5014162;28;20769;-86
2022/07/08 06:18:25;;;;;;;6.17;2.00;;;26.30;99.90;;;;;;5009097;28;20207;-87
2022/07/08 06:20:51;;;;;;;4.83;1.50;;;30.70;99.90;;;;;;5012569;28;20198;-88
2022/07/08 06:23:17;;;;;;;3.83;1.30;;;33.80;99.90;;;;;;5007399;28;20452;-87
2022/07/08 06:25:42;;;;;;;6.83;1.37;;;36.70;99.90;;;;;;5006722;28;20183;-88
2022/07/08 06:28:08;;;;;;;4.60;1.37;;;39.10;99.90;;;;;;5010244;28;20216;-87
2022/07/08 06:30:34;;;;;;;4.13;1.37;;;41.30;99.90;;;;;;5011088;28;20206;-87
2022/07/08 06:33:02;;;;;;;4.17;1.20;;;43.10;99.90;;;;;;5009086;28;20179;-88
2022/07/08 06:35:28;;;;;;;7.20;1.97;;;44.80;99.90;;;;;;5013395;28;20445;-88
2022/07/08 06:37:54;;;;;;;4.80;1.40;;;44.10;96.00;;;;;;5004310;28;20438;-85
2022/07/08 06:40:21;;;;;;;4.83;1.27;;;43.10;82.20;;;;;;5005965;28;20250;-87
2022/07/08 06:42:47;;;;;;;3.10;1.30;;;44.40;73.90;;;;;;5011376;28;20175;-89
2022/07/08 06:45:14;;;;;;;3.37;1.33;;;45.50;63.90;;;;;;5007279;28;20464;-87
2022/07/08 06:47:40;;;;;;;4.80;1.23;;;46.50;56.50;;;;;;5008981;28;20460;-87
2022/07/08 06:50:06;;;;;;;6.17;1.50;;;47.60;50.20;;;;;;5013000;28;20822;-87
2022/07/08 06:52:33;;;;;;;6.67;1.40;;;46.10;40.40;;;;;;5007197;28;20171;-87
2022/07/08 06:54:59;;;;;;;4.90;1.13;;;48.00;38.80;;;;;;5011222;28;20422;-85
2022/07/08 06:57:25;;;;;;;3.10;1.20;;;50.20;37.50;;;;;;5015790;28;20508;-85
2022/07/08 06:59:51;;;;;;;5.93;1.93;;;50.60;32.50;;;;;;5009837;28;20899;-87
2022/07/08 07:02:17;;;;;;;6.17;1.50;;;48.10;24.50;;;;;;5007809;28;20460;-87
2022/07/08 07:04:43;;;;;;;5.10;1.10;;;45.20;18.20;;;;;;5009475;28;20202;-87
2022/07/08 07:07:08;;;;;;;3.90;1.03;;;47.00;19.20;;;;;;5008192;28;20464;-85
2022/07/08 07:09:35;;;;;;;4.93;1.40;;;47.60;17.60;;;;;;5012201;28;20478;-87
2022/07/08 07:12:01;;;;;;;3.87;1.50;;;47.30;14.80;;;;;;5003313;28;20207;-86
2022/07/08 07:14:27;;;;;;;2.53;1.23;;;51.30;19.60;;;;;;5004164;28;20724;-87
2022/07/08 07:16:52;;;;;;;5.95;1.63;;;54.30;20.30;;;;;;5000349;28;20333;-85
2022/07/08 07:19:18;;;;;;;2.92;1.25;;;56.20;20.90;;;;;;5009663;28;20260;-86
2022/07/08 07:21:44;;;;;;;4.40;1.35;;;58.00;20.90;;;;;;5006084;28;20602;-86
2022/07/08 07:24:09;;;;;;;2.38;1.10;;;59.10;21.40;;;;;;5011902;28;20325;-87
2022/07/08 07:26:36;;;;;;;4.22;1.40;;;60.30;20.90;;;;;;5011279;28;20219;-87
2022/07/08 07:29:03;;;;;;;3.22;1.58;;;61.20;20.90;;;;;;5039902;28;20202;-88
2022/07/08 07:31:28;;;;;;;6.78;1.77;;;61.70;19.80;;;;;;5006061;28;20204;-87
2022/07/08 07:33:54;;;;;;;2.30;1.35;;;62.00;18.50;;;;;;5012528;28;20237;-87
2022/07/08 07:36:19;;;;;;;5.60;1.15;;;62.20;17.40;;;;;;5001623;28;20197;-87
2022/07/08 07:38:45;;;;;;;5.10;1.40;;;60.70;12.90;;;;;;5009901;28;20297;-87
2022/07/08 07:41:11;;;;;;;2.88;1.27;;;59.70;9.40;;;;;;5011112;28;20234;-88
2022/07/08 07:43:36;;;;;;;4.82;1.50;;;56.40;2.90;;;;;;5010232;28;20206;-86
2022/07/08 07:46:02;;;;;;;3.97;1.70;;;55.40;1.00;;;;;;5009088;28;20182;-86
2022/07/08 07:48:27;;;;;;;9.23;1.70;;;53.30;1.00;;;;;;5007263;28;20261;-86
2022/07/08 07:50:53;;;;;;;4.67;1.40;;;49.70;1.00;;;;;;5019063;28;20194;-88
2022/07/08 07:53:18;;;;;;;4.43;1.40;;;45.70;1.00;;;;;;5010149;28;20233;-88
2022/07/08 07:55:44;;;;;;;6.80;1.80;;;42.70;1.00;;;;;;5006100;28;20186;-89
2022/07/08 07:58:09;;;;;;;5.53;1.47;;;42.30;1.00;;;;;;5010697;28;20218;-90
2022/07/08 08:00:35;;;;;;;7.83;1.67;;;42.00;1.00;;;;;;5005796;28;20219;-88
2022/07/08 08:03:00;;;;;;;7.50;1.97;;;40.50;1.00;;;;;;5003721;28;20187;-89
2022/07/08 08:05:26;;;;;;;6.57;1.83;;;42.10;1.00;;;;;;5007243;28;20191;-89
2022/07/08 08:07:52;;;;;;;4.60;1.40;;;44.80;1.00;;;;;;5019522;28;20211;-86
2022/07/08 08:10:17;;;;;;;4.40;1.50;;;47.30;13.20;;;;;;5008670;28;20270;-86
2022/07/08 08:12:43;;;;;;;5.60;1.77;;;49.20;5.50;;;;;;5008139;28;20193;-88
2022/07/08 08:15:09;;;;;;;3.50;1.30;;;50.40;6.10;;;;;;5008835;28;20646;-88
2022/07/08 08:17:41;;;;;;;4.60;1.67;;;51.20;6.40;;;;;;5007946;28;20234;-87
2022/07/08 08:20:09;;;;;;;9.67;1.90;;;49.30;2.40;;;;;;5009158;28;20461;-90
2022/07/08 08:22:35;;;;;;;5.33;1.67;;;47.70;1.00;;;;;;5002485;28;20423;-86
2022/07/08 08:25:00;;;;;;;6.90;1.57;;;45.80;1.00;;;;;;5006196;28;20440;-86
2022/07/08 08:27:26;;;;;;;5.10;1.63;;;47.30;1.00;;;;;;5008649;28;20198;-89
2022/07/08 08:29:52;;;;;;;4.50;1.50;;;48.80;1.50;;;;;;5011076;28;20190;-86
2022/07/08 08:32:17;;;;;;;7.23;1.83;;;50.10;2.70;;;;;;5007975;28;20183;-86
2022/07/08 08:34:43;;;;;;;4.80;1.73;;;50.70;2.80;;;;;;5004378;28;20182;-86
2022/07/08 08:37:08;;;;;;;6.60;2.37;;;51.00;2.40;;;;;;5008523;28;20190;-87
2022/07/08 08:39:34;;;;;;;3.67;1.80;;;51.30;2.10;;;;;;5006319;28;20186;-86
2022/07/08 08:42:00;;;;;;;4.50;1.50;;;51.50;1.40;;;;;;5008403;28;20206;-86
2022/07/08 08:44:26;;;;;;;4.00;1.30;;;51.80;1.80;;;;;;5006149;28;20265;-86
2022/07/08 08:46:53;;;;;;;7.10;1.60;;;52.10;1.30;;;;;;5008867;28;20186;-86
2022/07/08 08:49:19;;;;;;;3.63;1.60;;;52.10;1.40;;;;;;5004742;28;20838;-86
2022/07/08 08:51:49;;;;;;;5.07;1.60;;;52.30;1.00;;;;;;5007259;28;20422;-86
2022/07/08 08:54:20;;;;;;;3.53;1.37;;;52.10;1.00;;;;;;5000756;28;20848;-87
2022/07/08 08:56:46;;;;;;;5.03;1.60;;;51.70;1.00;;;;;;5005443;28;20410;-86
2022/07/08 08:59:14;;;;;;;4.63;1.53;;;51.90;1.00;;;;;;5008974;28;20511;-87
2022/07/08 09:01:41;;;;;;;4.47;1.30;;;51.70;1.00;;;;;;5007475;28;20565;-87
2022/07/08 09:04:12;;;;;;;5.70;1.73;;;51.50;1.00;;;;;;5010702;28;20425;-86
2022/07/08 09:06:41;;;;;;;4.20;1.60;;;51.60;1.00;;;;;;5007681;28;20485;-87
2022/07/08 09:09:07;;;;;;;4.33;1.70;;;51.70;1.00;;;;;;5009377;28;20823;-86
2022/07/08 09:11:33;;;;;;;3.97;1.57;;;51.20;1.00;;;;;;5008813;28;20470;-86
2022/07/08 09:14:15;;;;;;;10.47;2.20;;;51.20;1.00;;;;;;5008375;28;20440;-86
2022/07/08 09:17:01;;;;;;;4.57;1.37;;;51.00;1.00;;;;;;5001607;28;20496;-86
2022/07/08 09:19:27;;;;;;;8.60;1.90;;;50.90;1.00;;;;;;5001709;28;20928;-87
2022/07/08 09:21:52;;;;;;;4.40;1.47;;;50.60;1.00;;;;;;5006929;28;20560;-85
2022/07/08 09:24:21;;;;;;;4.50;1.50;;;50.20;1.00;;;;;;5007463;28;20261;-85
2022/07/08 09:26:46;;;;;;;4.77;1.73;;;50.40;1.00;;;;;;5006160;28;20233;-86
2022/07/08 09:29:12;;;;;;;3.90;1.50;;;50.30;1.00;;;;;;4998653;28;20847;-86
2022/07/08 09:31:38;;;;;;;5.07;1.37;;;50.50;1.00;;;;;;5006359;28;20590;-86
2022/07/08 09:34:11;;;;;;;5.80;1.50;;;50.70;1.00;;;;;;5009221;28;20651;-85
2022/07/08 09:36:45;;;;;;;4.77;1.33;;;50.70;1.00;;;;;;5007105;28;20447;-86
2022/07/08 09:39:22;;;;;;;3.50;1.33;;;50.40;1.00;;;;;;5006659;28;20548;-86
2022/07/08 09:41:48;;;;;;;3.73;1.17;;;50.50;1.00;;;;;;5006807;28;20519;-86
2022/07/08 09:44:15;;;;;;;3.30;1.10;;;50.40;1.00;;;;;;5004972;28;20795;-85
2022/07/08 09:46:42;;;;;;;4.10;1.50;;;50.30;1.00;;;;;;5004660;28;20270;-85
2022/07/08 09:49:07;;;;;;;4.03;1.20;;;49.80;1.00;;;;;;5007714;28;20459;-86
2022/07/08 09:51:35;;;;;;;7.27;1.90;;;49.90;1.00;;;;;;5012445;28;20421;-85
2022/07/08 09:54:13;;;;;;;4.27;1.47;;;48.90;1.00;;;;;;5010343;28;20188;-85
2022/07/08 09:56:38;;;;;;;7.13;1.70;;;48.30;1.00;;;;;;5011498;28;20558;-85
2022/07/08 09:59:04;;;;;;;4.57;1.30;;;49.20;1.00;;;;;;5012208;28;20503;-86
2022/07/08 10:01:31;;;;;;;9.30;1.80;;;49.20;1.00;;;;;;5012818;28;20202;-86
2022/07/08 10:03:57;;;;;;;4.80;1.10;;;49.00;1.00;;;;;;5010565;28;20178;-86
2022/07/08 10:06:22;;;;;;;6.17;1.40;;;48.80;1.00;;;;;;5006406;28;20440;-86
2022/07/08 10:08:48;;;;;;;7.67;1.80;;;48.00;1.00;;;;;;5012379;28;20191;-86
2022/07/08 10:11:14;;;;;;;3.83;1.40;;;47.70;1.00;;;;;;5015005;28;20233;-84
2022/07/08 10:13:40;;;;;;;7.53;1.90;;;47.20;1.00;;;;;;5013612;28;20183;-85
2022/07/08 10:16:10;;;;;;;3.53;1.10;;;46.30;1.00;;;;;;5014919;28;20544;-85
2022/07/08 10:18:39;;;;;;;4.67;1.67;;;46.20;1.00;;;;;;5011637;28;20457;-85
2022/07/08 10:21:07;;;;;;;8.30;1.63;;;46.60;1.00;;;;;;5009244;28;20514;-87
2022/07/08 10:23:45;;;;;;;7.10;1.83;;;46.00;1.00;;;;;;5005725;28;20430;-86
2022/07/08 10:26:13;;;;;;;5.53;1.40;;;44.70;1.00;;;;;;5008942;28;20425;-85
2022/07/08 10:28:41;;;;;;;5.30;1.57;;;44.50;1.00;;;;;;5008213;28;20433;-85
2022/07/08 10:31:20;;;;;;;4.23;1.43;;;44.50;1.00;;;;;;5013122;28;20442;-86
2022/07/08 10:33:46;;;;;;;5.67;2.20;;;44.10;1.00;;;;;;5004087;28;20541;-86
2022/07/08 10:36:11;;;;;;;4.07;1.70;;;44.60;1.00;;;;;;5015413;28;20453;-86
2022/07/08 10:38:41;;;;;;;6.23;1.40;;;45.50;1.00;;;;;;5014325;28;20214;-86
2022/07/08 10:41:11;;;;;;;7.07;2.00;;;46.10;1.00;;;;;;5012722;28;20214;-87
2022/07/08 10:43:48;;;;;;;6.50;1.70;;;45.70;1.00;;;;;;5011205;28;20548;-86
2022/07/08 10:46:16;;;;;;;7.60;1.90;;;45.70;1.00;;;;;;5005158;28;20432;-87
2022/07/08 10:48:43;;;;;;;5.13;1.80;;;45.90;1.00;;;;;;5002512;28;20434;-87
2022/07/08 10:51:29;;;;;;;8.17;2.23;;;46.50;1.00;;;;;;5009680;28;20457;-87
2022/07/08 10:54:01;;;;;;;6.07;1.70;;;46.90;1.00;;;;;;5002970;28;20422;-86
2022/07/08 10:56:56;;;;;;;7.07;2.23;;;47.50;1.00;;;;;;5008334;28;20934;-86
2022/07/08 10:59:27;;;;;;;4.20;1.30;;;48.20;1.00;;;;;;5003785;28;20440;-86
2022/07/08 11:02:03;;;;;;;3.63;1.70;;;48.40;1.00;;;;;;5004265;28;20526;-86
2022/07/08 11:04:31;;;;;;;3.80;1.50;;;47.90;1.00;;;;;;5008594;28;20429;-86
2022/07/08 11:07:17;;;;;;;6.63;1.57;;;47.00;1.00;;;;;;5006947;28;20873;-86
2022/07/08 11:09:44;;;;;;;7.87;1.70;;;46.10;1.00;;;;;;5005896;28;20827;-86
2022/07/08 11:12:14;;;;;;;8.30;1.73;;;45.10;1.00;;;;;;5009384;28;20462;-86
2022/07/08 11:14:44;;;;;;;5.17;2.00;;;44.70;1.00;;;;;;5004811;28;20418;-86
2022/07/08 11:17:14;;;;;;;4.90;1.30;;;44.40;1.00;;;;;;5007252;28;20430;-86
2022/07/08 11:19:44;;;;;;;8.40;1.63;;;43.60;1.00;;;;;;5010870;28;20441;-85
2022/07/08 11:22:10;;;;;;;7.20;1.67;;;42.70;1.00;;;;;;5005187;28;20469;-86
2022/07/08 11:24:40;;;;;;;6.03;1.70;;;42.00;1.00;;;;;;5013089;28;20469;-85
2022/07/08 11:27:06;;;;;;;12.37;2.00;;;41.20;1.00;;;;;;5013946;28;20441;-84
2022/07/08 11:29:32;;;;;;;7.73;1.83;;;39.30;1.00;;;;;;5011725;28;20433;-85
2022/07/08 11:32:00;;;;;;;4.43;1.70;;;39.10;1.00;;;;;;5012058;28;20954;-86
2022/07/08 11:34:26;;;;;;;8.63;1.60;;;39.40;1.00;;;;;;5013148;28;20445;-84
2022/07/08 11:36:55;;;;;;;5.17;1.53;;;40.30;1.00;;;;;;5002019;28;20453;-86
2022/07/08 11:39:21;;;;;;;4.90;1.33;;;41.10;1.00;;;;;;5006022;28;20194;-85
2022/07/08 11:41:47;;;;;;;7.40;2.10;;;41.80;1.00;;;;;;5000842;28;20474;-86
2022/07/08 11:44:12;;;;;;;8.43;1.77;;;42.60;1.00;;;;;;5007026;28;20183;-84
2022/07/08 11:46:46;;;;;;;7.33;1.87;;;42.60;1.00;;;;;;5002331;28;20179;-85
2022/07/08 11:49:12;;;;;;;7.13;1.70;;;42.20;1.00;;;;;;5006836;28;20242;-84
2022/07/08 11:51:37;;;;;;;6.43;2.10;;;41.40;1.00;;;;;;5009817;28;20438;-86
2022/07/08 11:54:03;;;;;;;9.60;1.87;;;40.40;1.00;;;;;;5015001;28;20192;-84
2022/07/08 11:56:31;;;;;;;5.57;1.67;;;39.10;1.00;;;;;;5011937;28;20194;-85
2022/07/08 11:58:56;;;;;;;4.77;1.53;;;38.60;1.00;;;;;;5005058;28;20636;-84
2022/07/08 12:01:25;;;;;;;5.73;1.60;;;38.40;1.00;;;;;;5012609;28;20454;-87
2022/07/08 12:03:51;;;;;;;8.13;1.60;;;38.00;1.00;;;;;;5008844;28;20175;-84
2022/07/08 12:06:24;;;;;;;5.97;1.67;;;37.90;1.60;;;;;;5011128;28;20827;-85
2022/07/08 12:08:49;;;;;;;5.70;1.73;;;37.90;1.00;;;;;;5010272;28;20582;-84
2022/07/08 12:11:18;;;;;;;5.73;1.57;;;38.30;1.00;;;;;;5011825;28;20433;-84
2022/07/08 12:13:46;;;;;;;3.97;1.53;;;38.30;1.00;;;;;;4999199;28;20180;-85
2022/07/08 12:16:27;;;;;;;4.97;1.70;;;38.70;1.00;;;;;;5011027;28;20425;-85
2022/07/08 12:18:53;;;;;;;5.40;1.50;;;38.80;1.00;;;;;;5002369;28;20442;-87
2022/07/08 12:21:20;;;;;;;6.10;1.33;;;38.90;1.00;;;;;;5009294;28;20560;-85
2022/07/08 12:23:55;;;;;;;3.70;1.10;;;39.00;1.00;;;;;;5009055;28;20175;-84
2022/07/08 12:26:21;;;;;;;2.40;1.13;;;38.90;1.00;;;;;;5023669;28;20464;-85
2022/07/08 12:28:47;;;;;;;4.93;1.30;;;39.20;1.00;;;;;;5007561;28;20438;-84
2022/07/08 12:31:30;;;;;;;4.80;1.50;;;38.90;1.00;;;;;;5008478;28;20248;-85
2022/07/08 12:34:06;;;;;;;3.47;1.37;;;38.50;1.00;;;;;;5013522;28;20213;-84
2022/07/08 12:36:33;;;;;;;8.00;1.50;;;38.30;1.00;;;;;;5011067;28;20529;-84
2022/07/08 12:39:09;;;;;;;7.60;1.80;;;38.00;1.00;;;;;;5010132;28;20441;-84
2022/07/08 12:41:35;;;;;;;6.37;1.20;;;37.60;1.00;;;;;;5005008;28;20969;-84
2022/07/08 12:44:30;;;;;;;3.00;1.50;;;37.40;1.00;;;;;;5010304;28;20430;-84
2022/07/08 12:46:56;;;;;;;4.20;1.40;;;37.30;1.00;;;;;;5006716;28;20196;-84
2022/07/08 12:49:23;;;;;;;6.03;1.40;;;37.30;1.00;;;;;;5010977;28;20437;-85
2022/07/08 12:51:49;;;;;;;3.40;1.40;;;37.10;1.00;;;;;;5026460;28;20190;-84